Poughquag, NY

3:50 PM EDT on March 24, 2017 (GMT -0400)
Dalton Farms, Poughquag, NY | | Change Station

Elev 446 ft 41.62 °N, 73.70 °W | Updated 23 seconds ago

Overcast
Overcast
44.8 °F
Feels Like 43 °F
N
4.0
Wind Variable Wind from SSW

Today
High -- | Low -- °F
--% Chance of Precip.
Yesterday
High -- | Low -- °F
Precip. -- in
Pressure 30.19 in
Visibility 10.0 miles
Clouds Overcast 3200 ft
Windchill 43 °F
Dew Point 30 °F
Humidity 58%
Rainfall 0.00 in
Snow Depth Not available.
6:50 AM 7:11 PM
Waning Crescent, 13% visible
METAR KPOU 241853Z 18006KT 10SM OVC032 05/M02 A3020 RMK AO2 SLP224 T00501022
Pressure 30.19 in
Visibility 10.0 miles
Clouds Overcast 3200 ft
Windchill 43 °F
Dew Point 30 °F
Humidity 58%
Rainfall 0.00 in
Snow Depth Not available.
6:50 AM 7:11 PM
Waning Crescent, 13% visible
METAR KPOU 241853Z 18006KT 10SM OVC032 05/M02 A3020 RMK AO2 SLP224 T00501022

Get Severe Weather Alerts

Thanks for signing up!

Be on the lookout for a verification email in your inbox.

You'll start receiving the daily forecast at 8 AM.

×

10-Day Weather Forecast

Almanac

Astronomy

Mar. 24, 2017 Rise Set
Actual Time
Civil Twilight
Nautical Twilight
Astronomical Twilight
Moon
Length of Visible Light
Length of Day
Tomorrow will be .
, % of the Moon is Illuminated

Today's Extremes

State Highs State Lows

Community

WunderPhotos

Upload Photos

1,962,540 photos uploaded!

WunderBlog® & News

Nearby

Air Quality

  Air Quality AQ Index Pollutant
Not available.

Snow Depth

Station Depth Elevation

Earthquake Activity

City Distance Mag. Time & Date
Minimum magnitude displayed is 2.5.

Earthquake Activity

City Distance Mag. Time & Date
Minimum magnitude displayed is 2.5.

Coastal Water Temperatures

Place Temperature

Stations

Nearby Weather Stations

Station Location Temp. Windchill Dew Point Humidity Wind Precip. Elev Updated Type
                   

Watches & Warnings

There are currently no watches in effect.